Time;durP1;ratioP1;P1;durP2;ratioP2;P2;SDS_P1;SDS_P2;PMS_P1;PMS_P2;Temp;Humidity;BMP_temperature;BMP_pressure;BME280_temperature;BME280_humidity;BME280_pressure;Samples;Min_cycle;Max_cycle;Signal;HPM_P1;HPM_P2
2021/10/20 00:01:06;;;;;;;;;;;;;;;3.34;66.54;98585.09;5061055;28;19968;-74
2021/10/20 00:03:31;;;;;;;;;;;;;;;3.27;66.89;98584.66;5077702;28;19920;-77
2021/10/20 00:05:57;;;;;;;;;;;;;;;3.31;66.52;98587.94;5094689;28;19920;-75
2021/10/20 00:08:23;;;;;;;;;;;;;;;3.36;66.43;98584.06;5060848;28;19927;-76
2021/10/20 00:10:49;;;;;;;;;;;;;;;3.39;66.28;98583.03;5060858;28;20401;-75
2021/10/20 00:13:14;;;;;;;;;;;;;;;3.21;66.41;98584.19;5077321;28;19920;-76
2021/10/20 00:15:40;;;;;;;;;;;;;;;3.13;66.57;98577.59;5060636;28;19969;-75
2021/10/20 00:18:06;;;;;;;;;;;;;;;3.06;67.01;98592.13;5094161;28;19927;-76
2021/10/20 00:20:32;;;;;;;;;;;;;;;3.01;67.02;98588.03;5094095;28;20375;-76
2021/10/20 00:22:57;;;;;;;;;;;;;;;2.94;67.37;98584.94;5094384;28;19920;-74
2021/10/20 00:25:23;;;;;;;;;;;;;;;2.93;67.55;98580.59;5077667;28;19923;-77
2021/10/20 00:27:49;;;;;;;;;;;;;;;2.96;67.30;98583.06;5076847;28;19924;-77
2021/10/20 00:30:16;;;;;;;;;;;;;;;3.09;66.82;98581.38;5059505;28;19950;-76
2021/10/20 00:32:42;;;;;;;;;;;;;;;3.00;67.10;98581.06;5076719;28;19966;-77
2021/10/20 00:35:09;;;;;;;;;;;;;;;3.11;66.73;98594.47;5095078;28;19931;-75
2021/10/20 00:37:34;;;;;;;;;;;;;;;2.96;67.09;98590.97;5076938;28;20398;-75
2021/10/20 00:40:00;;;;;;;;;;;;;;;2.97;67.13;98586.53;5076955;28;19924;-77
2021/10/20 00:42:26;;;;;;;;;;;;;;;3.04;66.89;98566.72;5076844;28;19920;-76
2021/10/20 00:44:53;;;;;;;;;;;;;;;3.08;66.72;98553.25;5043520;28;20374;-75
2021/10/20 00:47:18;;;;;;;;;;;;;;;3.00;66.94;98558.16;5093672;28;19920;-77
2021/10/20 00:49:44;;;;;;;;;;;;;;;3.03;66.91;98573.81;5076693;28;19923;-75
2021/10/20 00:52:10;;;;;;;;;;;;;;;2.89;67.34;98577.28;5076476;28;19924;-75
2021/10/20 00:54:36;;;;;;;;;;;;;;;2.93;67.26;98596.44;5060047;28;19927;-76
2021/10/20 00:57:02;;;;;;;;;;;;;;;2.97;67.22;98603.25;5076281;28;20444;-76
2021/10/20 00:59:28;;;;;;;;;;;;;;;2.96;67.16;98595.41;5093479;28;19927;-75
2021/10/20 01:01:53;;;;;;;;;;;;;;;2.95;67.28;98583.16;5059838;28;19920;-77
2021/10/20 01:04:19;;;;;;;;;;;;;;;2.96;67.21;98577.78;5059624;28;20275;-77
2021/10/20 01:06:45;;;;;;;;;;;;;;;2.92;67.35;98581.53;5059727;28;19919;-76
2021/10/20 01:09:11;;;;;;;;;;;;;;;2.97;67.06;98586.53;5093325;28;20022;-75
2021/10/20 01:11:37;;;;;;;;;;;;;;;2.91;67.21;98579.84;5059215;28;19963;-76
2021/10/20 01:14:02;;;;;;;;;;;;;;;2.96;67.04;98580.41;5060127;28;19920;-76
2021/10/20 01:16:28;;;;;;;;;;;;;;;3.06;66.79;98571.00;5093417;28;19920;-75
2021/10/20 01:18:54;;;;;;;;;;;;;;;3.12;66.47;98575.91;5076048;28;20384;-76
2021/10/20 01:21:22;;;;;;;;;;;;;;;3.09;66.43;98576.09;5059634;28;19963;-75
2021/10/20 01:23:48;;;;;;;;;;;;;;;3.02;66.29;98569.47;5060299;28;19920;-76
2021/10/20 01:26:14;;;;;;;;;;;;;;;3.06;66.23;98560.44;5077445;28;20291;-76
2021/10/20 01:28:40;;;;;;;;;;;;;;;2.99;66.16;98556.47;5060001;28;19924;-76
2021/10/20 01:31:06;;;;;;;;;;;;;;;2.95;66.31;98552.31;5076241;28;19924;-75
2021/10/20 01:33:31;;;;;;;;;;;;;;;3.07;65.96;98551.56;5075878;28;19919;-75
2021/10/20 01:35:57;;;;;;;;;;;;;;;2.97;65.88;98563.66;5059098;28;19967;-76
2021/10/20 01:38:23;;;;;;;;;;;;;;;2.90;66.16;98572.88;5042418;28;19927;-76
2021/10/20 01:40:48;;;;;;;;;;;;;;;2.87;66.06;98580.97;5075467;28;19920;-75
2021/10/20 01:43:14;;;;;;;;;;;;;;;2.84;66.28;98575.88;5059074;28;20018;-77
2021/10/20 01:45:40;;;;;;;;;;;;;;;2.84;66.13;98575.88;5058973;28;20387;-75
2021/10/20 01:48:06;;;;;;;;;;;;;;;2.84;66.03;98575.88;5075653;28;19920;-77
2021/10/20 01:50:31;;;;;;;;;;;;;;;2.87;66.15;98580.97;5075566;28;20324;-77
2021/10/20 01:52:57;;;;;;;;;;;;;;;2.84;66.24;98591.72;5058892;28;20432;-76
2021/10/20 01:55:23;;;;;;;;;;;;;;;2.76;66.26;98593.97;5058473;28;19920;-75
2021/10/20 01:57:49;;;;;;;;;;;;;;;2.71;66.18;98607.47;5059005;28;19973;-76
2021/10/20 02:00:15;;;;;;;;;;;;;;;2.72;66.55;98601.22;5058942;28;19920;-76
2021/10/20 02:02:41;;;;;;;;;;;;;;;2.88;66.30;98601.16;5075376;28;19923;-75
2021/10/20 02:05:07;;;;;;;;;;;;;;;2.92;66.10;98605.28;5059103;28;20014;-76
2021/10/20 02:07:33;;;;;;;;;;;;;;;2.88;66.05;98609.06;5058353;28;20010;-76
2021/10/20 02:09:58;;;;;;;;;;;;;;;2.97;65.89;98615.56;5092048;28;19968;-75
2021/10/20 02:12:24;;;;;;;;;;;;;;;2.95;65.89;98602.47;5058475;28;20382;-74
2021/10/20 02:14:50;;;;;;;;;;;;;;;2.93;65.65;98601.72;5074916;28;19924;-74
2021/10/20 02:17:16;;;;;;;;;;;;;;;2.88;65.83;98598.50;5075272;28;19927;-74
2021/10/20 02:19:41;;;;;;;;;;;;;;;2.91;65.75;98598.31;5058413;28;20367;-76
2021/10/20 02:22:07;;;;;;;;;;;;;;;2.73;66.41;98596.78;5091750;28;19919;-76
2021/10/20 02:24:33;;;;;;;;;;;;;;;2.54;66.77;98594.41;5091965;28;20290;-75
2021/10/20 02:26:59;;;;;;;;;;;;;;;2.42;67.14;98591.56;5058268;28;19924;-75
2021/10/20 02:29:24;;;;;;;;;;;;;;;2.38;67.49;98594.47;5075421;28;19920;-75
2021/10/20 02:31:50;;;;;;;;;;;;;;;2.37;67.56;98601.53;5093036;28;19930;-75
2021/10/20 02:34:16;;;;;;;;;;;;;;;2.36;67.54;98596.31;5074579;28;20014;-75
2021/10/20 02:36:42;;;;;;;;;;;;;;;2.40;67.44;98588.13;5075025;28;20378;-75
2021/10/20 02:39:08;;;;;;;;;;;;;;;2.56;67.12;98588.09;5074646;28;20007;-76
2021/10/20 02:41:34;;;;;;;;;;;;;;;2.60;66.80;98573.78;5058062;28;20393;-75
2021/10/20 02:44:00;;;;;;;;;;;;;;;2.66;66.75;98581.31;5058586;28;19920;-74
2021/10/20 02:46:26;;;;;;;;;;;;;;;2.59;66.74;98587.91;5058310;28;19936;-76
2021/10/20 02:48:51;;;;;;;;;;;;;;;2.51;67.15;98584.88;5074660;28;19926;-75
2021/10/20 02:51:17;;;;;;;;;;;;;;;2.40;67.38;98603.13;5058125;28;19920;-75
2021/10/20 02:53:43;;;;;;;;;;;;;;;2.35;67.60;98607.81;5093114;28;19919;-76
2021/10/20 02:56:08;;;;;;;;;;;;;;;2.31;68.09;98608.94;5079239;28;19920;-74
2021/10/20 02:58:34;;;;;;;;;;;;;;;2.21;68.32;98620.94;5095680;28;20049;-75
2021/10/20 03:01:00;;;;;;;;;;;;;;;2.10;68.56;98617.13;5096155;28;19919;-76
2021/10/20 03:03:25;;;;;;;;;;;;;;;2.01;68.67;98622.94;5079570;28;19973;-76
2021/10/20 03:05:51;;;;;;;;;;;;;;;2.04;69.00;98627.22;5062663;28;19930;-75
2021/10/20 03:08:16;;;;;;;;;;;;;;;2.05;69.07;98642.91;5078424;28;19920;-75
2021/10/20 03:10:42;;;;;;;;;;;;;;;2.06;68.88;98636.72;5095258;28;19920;-75
2021/10/20 03:13:08;;;;;;;;;;;;;;;2.11;68.69;98647.84;5078494;28;20000;-76
2021/10/20 03:15:34;;;;;;;;;;;;;;;2.08;69.00;98645.38;5061614;28;19927;-75
2021/10/20 03:17:59;;;;;;;;;;;;;;;2.07;69.09;98633.16;5078226;28;20394;-76
2021/10/20 03:20:25;;;;;;;;;;;;;;;2.18;68.97;98632.50;5078375;28;19920;-75
2021/10/20 03:22:51;;;;;;;;;;;;;;;2.28;68.43;98635.50;5061276;28;19924;-76
2021/10/20 03:25:16;;;;;;;;;;;;;;;2.33;68.10;98633.44;5095088;28;19990;-77
2021/10/20 03:27:46;;;;;;;;;;;;;;;2.35;68.00;98637.69;5062018;28;20436;-77
2021/10/20 03:30:12;;;;;;;;;;;;;;;2.37;67.83;98629.66;5077920;28;19963;-75
2021/10/20 03:32:38;;;;;;;;;;;;;;;2.33;67.95;98638.69;5044686;28;19919;-75
2021/10/20 03:35:04;;;;;;;;;;;;;;;2.17;68.38;98650.13;5094814;28;20284;-75
2021/10/20 03:37:30;;;;;;;;;;;;;;;2.13;68.35;98638.06;5061345;28;19920;-77
2021/10/20 03:39:55;;;;;;;;;;;;;;;2.07;68.82;98651.59;5077908;28;19920;-77
2021/10/20 03:42:21;;;;;;;;;;;;;;;2.09;68.99;98647.09;5061629;28;20021;-77
2021/10/20 03:44:47;;;;;;;;;;;;;;;2.10;69.03;98648.78;5060989;28;19920;-75
2021/10/20 03:47:13;;;;;;;;;;;;;;;2.21;68.67;98634.97;5074234;28;19921;-77
2021/10/20 03:49:38;;;;;;;;;;;;;;;2.36;68.37;98636.72;5057251;28;19920;-75
2021/10/20 03:52:05;;;;;;;;;;;;;;;2.39;68.00;98643.63;5057618;28;20367;-75
2021/10/20 03:54:30;;;;;;;;;;;;;;;2.49;67.92;98636.88;5057544;28;19990;-77
2021/10/20 03:56:56;;;;;;;;;;;;;;;2.53;67.88;98630.50;5041081;28;19943;-75
2021/10/20 03:59:21;;;;;;;;;;;;;;;2.51;67.60;98632.34;5075160;28;20407;-77
2021/10/20 04:01:47;;;;;;;;;;;;;;;2.47;67.83;98630.84;5074096;28;19970;-75
2021/10/20 04:04:13;;;;;;;;;;;;;;;2.53;68.00;98641.03;5040250;28;19920;-76
2021/10/20 04:06:39;;;;;;;;;;;;;;;2.71;67.71;98640.88;5040509;28;19969;-77
2021/10/20 04:09:05;;;;;;;;;;;;;;;2.95;67.03;98651.78;5073788;28;20012;-75
2021/10/20 04:11:32;;;;;;;;;;;;;;;3.11;66.49;98652.56;5040998;28;19920;-77
2021/10/20 04:13:57;;;;;;;;;;;;;;;3.25;66.42;98654.38;5040187;28;19920;-78
2021/10/20 04:16:23;;;;;;;;;;;;;;;3.38;66.20;98655.28;5040170;28;20054;-76
2021/10/20 04:18:49;;;;;;;;;;;;;;;3.45;66.21;98656.63;5040136;28;19920;-78
2021/10/20 04:21:14;;;;;;;;;;;;;;;3.63;65.48;98666.03;5039998;28;19955;-75
2021/10/20 04:23:40;;;;;;;;;;;;;;;3.63;65.01;98654.63;5040002;28;19932;-75
2021/10/20 04:26:06;;;;;;;;;;;;;;;3.34;65.62;98654.63;5073248;28;20394;-75
2021/10/20 04:28:31;;;;;;;;;;;;;;;3.28;65.87;98659.47;5040119;28;19978;-76
2021/10/20 04:30:57;;;;;;;;;;;;;;;3.32;65.78;98655.69;5040295;28;19920;-76
2021/10/20 04:33:23;;;;;;;;;;;;;;;3.43;65.93;98647.94;5056758;28;19920;-74
2021/10/20 04:35:49;;;;;;;;;;;;;;;3.55;65.61;98644.53;5074457;28;19951;-76
2021/10/20 04:38:15;;;;;;;;;;;;;;;3.71;65.40;98646.22;5023346;28;19920;-76
2021/10/20 04:40:40;;;;;;;;;;;;;;;3.73;64.87;98641.69;5039888;28;19924;-75
2021/10/20 04:43:06;;;;;;;;;;;;;;;3.84;64.80;98636.59;5073270;28;19966;-74
2021/10/20 04:45:32;;;;;;;;;;;;;;;3.91;64.52;98643.16;5056458;28;19969;-76
2021/10/20 04:47:58;;;;;;;;;;;;;;;3.96;64.21;98642.88;5039829;28;19927;-76
2021/10/20 04:50:25;;;;;;;;;;;;;;;4.00;64.13;98639.94;5039661;28;20002;-78
2021/10/20 04:52:51;;;;;;;;;;;;;;;4.13;64.00;98651.41;5056530;28;19986;-77
2021/10/20 04:55:16;;;;;;;;;;;;;;;4.17;63.67;98648.56;5056442;28;19924;-76
2021/10/20 04:57:47;;;;;;;;;;;;;;;4.28;63.69;98643.41;5039566;28;19927;-75
2021/10/20 05:00:13;;;;;;;;;;;;;;;4.38;63.26;98648.00;5039586;28;19992;-75
2021/10/20 05:02:38;;;;;;;;;;;;;;;4.28;62.74;98657.47;5073655;28;19924;-77
2021/10/20 05:05:05;;;;;;;;;;;;;;;4.27;62.92;98644.38;5039525;28;19981;-77
2021/10/20 05:07:31;;;;;;;;;;;;;;;4.26;62.76;98658.56;5039573;28;19994;-78
2021/10/20 05:09:57;;;;;;;;;;;;;;;4.23;62.92;98656.94;5055993;28;20394;-80
2021/10/20 05:12:22;;;;;;;;;;;;;;;4.24;62.99;98655.16;5022843;28;19924;-76
2021/10/20 05:14:48;;;;;;;;;;;;;;;4.20;62.79;98649.22;5073968;28;19920;-76
2021/10/20 05:17:14;;;;;;;;;;;;;;;4.22;62.58;98654.41;5038639;28;20062;-77
2021/10/20 05:19:39;;;;;;;;;;;;;;;4.20;62.52;98645.72;5056181;28;19924;-75
2021/10/20 05:22:07;;;;;;;;;;;;;;;4.24;62.42;98652.50;5073836;28;19920;-77
2021/10/20 05:24:34;;;;;;;;;;;;;;;4.35;62.29;98650.00;5039195;28;19963;-77
2021/10/20 05:26:59;;;;;;;;;;;;;;;4.45;61.96;98650.25;5039617;28;19990;-76
2021/10/20 05:29:32;;;;;;;;;;;;;;;4.35;61.76;98642.91;5055928;28;19924;-77
2021/10/20 05:31:57;;;;;;;;;;;;;;;4.36;61.74;98644.63;5040003;28;19924;-77
2021/10/20 05:34:23;;;;;;;;;;;;;;;4.50;61.84;98656.94;5056331;28;20341;-81
2021/10/20 05:36:49;;;;;;;;;;;;;;;4.52;61.54;98644.47;5056062;28;19951;-81
2021/10/20 05:39:14;;;;;;;;;;;;;;;4.58;61.50;98644.03;5055736;28;19927;-76
2021/10/20 05:41:40;;;;;;;;;;;;;;;4.71;61.28;98648.53;5055631;28;20030;-76
2021/10/20 05:44:07;;;;;;;;;;;;;;;4.61;61.46;98635.88;5073528;28;19920;-76
2021/10/20 05:46:32;;;;;;;;;;;;;;;4.44;61.47;98638.84;5038829;28;19928;-75
2021/10/20 05:48:58;;;;;;;;;;;;;;;4.44;61.41;98646.78;5042064;28;19925;-78
2021/10/20 05:51:24;;;;;;;;;;;;;;;4.55;61.71;98633.69;5056463;28;20378;-77
2021/10/20 05:53:49;;;;;;;;;;;;;;;4.61;60.85;98638.53;5039348;28;20021;-78
2021/10/20 05:56:15;;;;;;;;;;;;;;;4.58;60.90;98641.38;5055264;28;20294;-77
2021/10/20 05:58:41;;;;;;;;;;;;;;;4.66;60.53;98637.38;5073449;28;19924;-77
2021/10/20 06:01:10;;;;;;;;;;;;;;;4.56;60.92;98630.06;5043580;28;20432;-77
2021/10/20 06:03:36;;;;;;;;;;;;;;;4.45;60.71;98631.72;5055865;28;19920;-75
2021/10/20 06:06:02;;;;;;;;;;;;;;;4.54;60.95;98631.94;5057419;28;20449;-78
2021/10/20 06:08:27;;;;;;;;;;;;;;;4.58;60.95;98633.44;5031241;28;19931;-76
2021/10/20 06:10:53;;;;;;;;;;;;;;;4.44;60.86;98625.59;5085760;28;19928;-78
2021/10/20 06:13:19;;;;;;;;;;;;;;;4.67;61.00;98625.88;5038535;28;19979;-78
2021/10/20 06:15:45;;;;;;;;;;;;;;;4.73;60.41;98625.44;5087354;28;20070;-79
2021/10/20 06:18:12;;;;;;;;;;;;;;;5.03;62.64;98628.63;5053482;28;19924;-78
2021/10/20 06:20:38;;;;;;;;;;;;;;;5.29;60.93;98623.34;5088294;28;19950;-78
2021/10/20 06:23:04;;;;;;;;;;;;;;;5.43;59.40;98625.88;5058268;28;19924;-79
2021/10/20 06:25:29;;;;;;;;;;;;;;;5.41;58.18;98627.75;5067943;28;19921;-82
2021/10/20 06:27:55;;;;;;;;;;;;;;;5.32;58.00;98629.28;5067921;28;19928;-76
2021/10/20 06:30:21;;;;;;;;;;;;;;;5.25;58.43;98627.16;5076034;28;20007;-76
2021/10/20 06:32:46;;;;;;;;;;;;;;;5.33;57.82;98630.94;5059507;28;19920;-77
2021/10/20 06:35:12;;;;;;;;;;;;;;;5.44;57.52;98626.72;5059227;28;19920;-77
2021/10/20 06:37:38;;;;;;;;;;;;;;;5.17;57.40;98621.53;5075947;28;19927;-80
2021/10/20 06:40:05;;;;;;;;;;;;;;;5.27;57.56;98625.25;5059678;28;19924;-77
2021/10/20 06:42:31;;;;;;;;;;;;;;;5.15;57.92;98620.78;5059123;28;19932;-76
2021/10/20 06:44:57;;;;;;;;;;;;;;;5.20;57.70;98624.00;5075693;28;19920;-78
2021/10/20 06:47:23;;;;;;;;;;;;;;;5.27;57.69;98622.59;5059348;28;19920;-83
2021/10/20 06:49:48;;;;;;;;;;;;;;;5.28;57.22;98621.66;5043013;28;19946;-84
2021/10/20 06:52:14;;;;;;;;;;;;;;;5.38;56.99;98627.13;5059258;28;19977;-79
2021/10/20 06:54:40;;;;;;;;;;;;;;;5.34;57.22;98623.84;5058921;28;19927;-77
2021/10/20 06:57:05;;;;;;;;;;;;;;;5.24;57.17;98630.75;5058779;28;20040;-78
2021/10/20 06:59:31;;;;;;;;;;;;;;;5.43;57.23;98620.56;5041665;28;19948;-78
2021/10/20 07:01:57;;;;;;;;;;;;;;;5.32;57.20;98623.13;5058854;28;19920;-77
2021/10/20 07:04:22;;;;;;;;;;;;;;;5.16;57.37;98625.16;5058537;28;19920;-77
2021/10/20 07:06:50;;;;;;;;;;;;;;;5.14;57.39;98624.41;5058494;28;20444;-77
2021/10/20 07:09:16;;;;;;;;;;;;;;;5.13;57.59;98633.31;5075216;28;19920;-78
2021/10/20 07:11:42;;;;;;;;;;;;;;;4.88;57.93;98617.28;5058414;28;19927;-77
2021/10/20 07:14:08;;;;;;;;;;;;;;;4.97;57.91;98626.41;5075136;28;20026;-78
2021/10/20 07:16:34;;;;;;;;;;;;;;;5.22;57.59;98622.91;5057858;28;19921;-78
2021/10/20 07:19:05;;;;;;;;;;;;;;;5.26;57.47;98618.25;5058358;28;19924;-78
2021/10/20 07:21:31;;;;;;;;;;;;;;;5.41;57.05;98626.91;5075199;28;20035;-78
2021/10/20 07:23:57;;;;;;;;;;;;;;;5.52;57.06;98611.94;5075825;28;20014;-78
2021/10/20 07:26:23;;;;;;;;;;;;;;;5.64;56.62;98618.19;5057895;28;19924;-78
2021/10/20 07:28:49;;;;;;;;;;;;;;;5.41;56.21;98611.88;5041451;28;19974;-80
2021/10/20 07:31:15;;;;;;;;;;;;;;;5.38;56.22;98612.09;5074742;28;19920;-79
2021/10/20 07:33:40;;;;;;;;;;;;;;;5.40;56.18;98612.81;5058121;28;19927;-78
2021/10/20 07:36:06;;;;;;;;;;;;;;;5.48;55.78;98607.81;5058076;28;19928;-78
2021/10/20 07:38:32;;;;;;;;;;;;;;;5.43;56.19;98609.97;5040882;28;19920;-79
2021/10/20 07:40:57;;;;;;;;;;;;;;;5.54;55.75;98617.16;5075490;28;19920;-78
2021/10/20 07:43:23;;;;;;;;;;;;;;;5.56;56.28;98600.16;5057879;28;19951;-77
2021/10/20 07:45:49;;;;;;;;;;;;;;;5.85;55.85;98610.50;5074689;28;19927;-79
2021/10/20 07:48:15;;;;;;;;;;;;;;;5.92;55.29;98614.44;5041023;28;19920;-78
2021/10/20 07:50:42;;;;;;;;;;;;;;;5.88;55.52;98606.78;5057913;28;19931;-78
2021/10/20 07:53:10;;;;;;;;;;;;;;;5.89;55.60;98606.66;5074348;28;19927;-78
2021/10/20 07:55:36;;;;;;;;;;;;;;;5.92;54.89;98619.75;5075479;28;19982;-79
2021/10/20 07:58:02;;;;;;;;;;;;;;;5.95;54.96;98605.41;5074582;28;20028;-81
2021/10/20 08:00:28;;;;;;;;;;;;;;;5.88;54.44;98598.81;5041108;28;20390;-79
2021/10/20 08:02:54;;;;;;;;;;;;;;;5.98;54.87;98600.75;5024296;28;19920;-80
2021/10/20 08:05:20;;;;;;;;;;;;;;;6.06;54.67;98592.22;5074231;28;20397;-78
2021/10/20 08:07:45;;;;;;;;;;;;;;;6.49;55.50;98599.63;5075670;28;19927;-79
2021/10/20 08:10:14;;;;;;;;;;;;;;;6.63;55.30;98590.63;5074010;28;19925;-87
2021/10/20 08:12:40;;;;;;;;;;;;;;;6.85;57.09;98598.66;5041456;28;19982;-85
2021/10/20 08:15:07;;;;;;;;;;;;;;;7.24;55.29;98591.22;5089188;28;19920;-86
2021/10/20 08:17:32;;;;;;;;;;;;;;;7.35;50.97;98587.72;5042223;28;19960;-79
2021/10/20 08:19:58;;;;;;;;;;;;;;;7.08;50.67;98594.22;5075143;28;19971;-77
2021/10/20 08:22:24;;;;;;;;;;;;;;;6.80;50.90;98599.00;5057192;28;19920;-79
2021/10/20 08:24:50;;;;;;;;;;;;;;;6.77;50.55;98595.72;5056871;28;19943;-79
2021/10/20 08:27:15;;;;;;;;;;;;;;;6.88;51.11;98593.09;5073931;28;19994;-80
2021/10/20 08:29:41;;;;;;;;;;;;;;;6.96;49.40;98597.84;5073465;28;20031;-80
2021/10/20 08:32:08;;;;;;;;;;;;;;;6.93;50.19;98598.06;5039805;28;19920;-79
2021/10/20 08:34:34;;;;;;;;;;;;;;;6.84;48.11;98598.75;5056851;28;19967;-79
2021/10/20 08:37:00;;;;;;;;;;;;;;;6.71;47.53;98601.50;5040389;28;19939;-80
2021/10/20 08:39:26;;;;;;;;;;;;;;;6.47;47.60;98599.75;5079682;28;20478;-80
2021/10/20 08:41:54;;;;;;;;;;;;;;;6.29;48.11;98601.13;5077699;28;20417;-78
2021/10/20 08:44:20;;;;;;;;;;;;;;;6.37;48.30;98585.47;5069807;28;20018;-79
2021/10/20 08:46:45;;;;;;;;;;;;;;;6.43;47.90;98584.16;5091819;28;20352;-78
2021/10/20 08:49:11;;;;;;;;;;;;;;;6.45;47.56;98592.84;5078270;28;19925;-77
2021/10/20 08:51:37;;;;;;;;;;;;;;;6.37;46.99;98596.09;5055475;28;20286;-78
2021/10/20 08:54:03;;;;;;;;;;;;;;;6.44;47.48;98573.44;5056392;28;20016;-79
2021/10/20 08:56:28;;;;;;;;;;;;;;;6.43;47.87;98585.03;5057136;28;19927;-78
2021/10/20 08:58:54;;;;;;;;;;;;;;;6.65;47.80;98570.94;5023355;28;20504;-78
2021/10/20 09:01:20;;;;;;;;;;;;;;;6.87;47.24;98564.84;5039596;28;19927;-79
2021/10/20 09:03:46;;;;;;;;;;;;;;;6.97;46.74;98573.78;5071622;28;20023;-80
2021/10/20 09:06:15;;;;;;;;;;;;;;;6.98;44.99;98569.31;5054531;28;19927;-81
2021/10/20 09:08:41;;;;;;;;;;;;;;;6.98;45.43;98564.84;5070771;28;19928;-80
2021/10/20 09:11:18;;;;;;;;;;;;;;;6.79;46.50;98573.41;5037736;28;19920;-80
2021/10/20 09:13:44;;;;;;;;;;;;;;;7.01;46.49;98575.25;5037822;28;20405;-80
2021/10/20 09:16:11;;;;;;;;;;;;;;;7.02;45.11;98576.94;5048754;28;19920;-80
2021/10/20 09:18:37;;;;;;;;;;;;;;;6.88;45.76;98568.34;5037515;28;19920;-80
2021/10/20 09:21:05;;;;;;;;;;;;;;;7.08;45.23;98575.63;5054115;28;19924;-78
2021/10/20 09:23:31;;;;;;;;;;;;;;;7.04;45.32;98569.69;5037753;28;20436;-78
2021/10/20 09:25:58;;;;;;;;;;;;;;;7.11;44.24;98569.19;5037491;28;19920;-80
2021/10/20 09:28:25;;;;;;;;;;;;;;;7.21;44.45;98578.16;5054818;28;20377;-80
2021/10/20 09:30:52;;;;;;;;;;;;;;;7.42;44.09;98572.97;5054428;28;20387;-80
2021/10/20 09:33:19;;;;;;;;;;;;;;;7.49;43.45;98564.38;5053896;28;19977;-81
2021/10/20 09:35:45;;;;;;;;;;;;;;;7.43;43.17;98562.19;5036966;28;20023;-80
2021/10/20 09:38:11;;;;;;;;;;;;;;;7.49;43.27;98564.38;5055654;28;20450;-80
2021/10/20 09:40:46;;;;;;;;;;;;;;;7.45;42.78;98562.94;5056504;28;19920;-79
2021/10/20 09:43:14;;;;;;;;;;;;;;;7.50;42.18;98560.75;5056098;28;19942;-80
2021/10/20 09:45:40;;;;;;;;;;;;;;;7.63;40.54;98557.94;5042427;28;19966;-80
2021/10/20 09:48:13;;;;;;;;;;;;;;;7.66;38.99;98548.88;5045819;28;20019;-79
2021/10/20 09:50:41;;;;;;;;;;;;;;;7.42;39.21;98552.53;5058326;28;19920;-79
2021/10/20 09:53:07;;;;;;;;;;;;;;;7.66;39.21;98559.50;5054997;28;20371;-80
2021/10/20 09:55:33;;;;;;;;;;;;;;;7.61;38.25;98556.38;5055556;28;19940;-78
2021/10/20 09:58:12;;;;;;;;;;;;;;;7.46;37.53;98564.63;5038476;28;20042;-80
2021/10/20 10:00:38;;;;;;;;;;;;;;;7.57;38.15;98539.00;5038190;28;19929;-79
2021/10/20 10:03:06;;;;;;;;;;;;;;;7.79;37.52;98549.59;5037378;28;19925;-79
2021/10/20 10:05:32;;;;;;;;;;;;;;;7.98;36.90;98549.78;5038450;28;19920;-79
2021/10/20 10:07:58;;;;;;;;;;;;;;;8.00;36.90;98557.63;5038879;28;19920;-80
2021/10/20 10:10:24;;;;;;;;;;;;;;;7.94;37.10;98571.44;5038489;28;19927;-80
2021/10/20 10:12:52;;;;;;;;;;;;;;;7.78;36.93;98562.06;5054499;28;19920;-81
2021/10/20 10:15:18;;;;;;;;;;;;;;;7.82;36.34;98559.13;5055242;28;19942;-79
2021/10/20 10:17:43;;;;;;;;;;;;;;;7.70;36.93;98556.47;5082183;28;20333;-79
2021/10/20 10:20:10;;;;;;;;;;;;;;;7.78;36.62;98563.84;5074853;28;19984;-79
2021/10/20 10:22:45;;;;;;;;;;;;;;;7.89;36.55;98554.97;5058278;28;19943;-78
2021/10/20 10:25:11;;;;;;;;;;;;;;;7.98;36.38;98586.19;5074259;28;19930;-80
2021/10/20 10:27:37;;;;;;;;;;;;;;;7.68;36.55;98568.22;5056144;28;20395;-81
2021/10/20 10:30:04;;;;;;;;;;;;;;;7.54;36.72;98574.66;5046474;28;19928;-79
2021/10/20 10:32:33;;;;;;;;;;;;;;;7.52;36.89;98579.22;5051993;28;19993;-79
2021/10/20 10:35:03;;;;;;;;;;;;;;;7.27;37.48;98569.72;5064043;28;19920;-79
2021/10/20 10:37:30;;;;;;;;;;;;;;;7.34;37.70;98586.88;5065224;28;19920;-78
2021/10/20 10:39:56;;;;;;;;;;;;;;;7.29;38.60;98589.03;5083063;28;19967;-80
2021/10/20 10:42:32;;;;;;;;;;;;;;;7.13;38.54;98573.44;5037782;28;19920;-79
2021/10/20 10:45:07;;;;;;;;;;;;;;;7.12;38.40;98593.03;5054640;28;19924;-79
2021/10/20 10:47:33;;;;;;;;;;;;;;;6.91;38.38;98590.19;5037488;28;19921;-78
2021/10/20 10:49:59;;;;;;;;;;;;;;;7.10;38.43;98594.09;5037886;28;20390;-78
2021/10/20 10:52:28;;;;;;;;;;;;;;;7.24;37.68;98594.72;5037798;28;19927;-79
2021/10/20 10:54:56;;;;;;;;;;;;;;;7.18;37.60;98587.19;5087688;28;20279;-79
2021/10/20 10:57:22;;;;;;;;;;;;;;;7.22;37.69;98603.75;5054694;28;20440;-78
2021/10/20 10:59:54;;;;;;;;;;;;;;;7.13;37.56;98602.69;5037842;28;19970;-79
2021/10/20 11:02:55;;;;;;;;;;;;;;;7.29;37.62;98591.69;5054346;28;20375;-79
2021/10/20 11:05:21;;;;;;;;;;;;;;;7.35;37.28;98607.16;4988578;28;19925;-79
2021/10/20 11:07:48;;;;;;;;;;;;;;;7.18;37.05;98607.63;5041558;28;19993;-79
2021/10/20 11:10:14;;;;;;;;;;;;;;;7.27;36.48;98612.25;5054281;28;20412;-80
2021/10/20 11:12:40;;;;;;;;;;;;;;;7.24;36.55;98604.50;5037861;28;19959;-79
2021/10/20 11:15:06;;;;;;;;;;;;;;;7.30;37.01;98622.66;5055863;28;19967;-81
2021/10/20 11:17:32;;;;;;;;;;;;;;;7.35;36.84;98620.47;5058107;28;19925;-81
2021/10/20 11:20:03;;;;;;;;;;;;;;;7.36;36.89;98616.81;5041586;28;20402;-78
2021/10/20 11:22:29;;;;;;;;;;;;;;;7.41;36.87;98625.31;5057344;28;19921;-80
2021/10/20 11:24:54;;;;;;;;;;;;;;;7.37;36.83;98631.84;5057775;28;20264;-80
2021/10/20 11:27:21;;;;;;;;;;;;;;;7.24;36.77;98620.44;5040766;28;19931;-79
2021/10/20 11:29:47;;;;;;;;;;;;;;;7.09;37.08;98627.78;5041162;28;19956;-78
2021/10/20 11:32:14;;;;;;;;;;;;;;;6.92;37.16;98634.41;5057780;28;19920;-78
2021/10/20 11:34:40;;;;;;;;;;;;;;;6.85;37.14;98643.81;5042256;28;19957;-78
2021/10/20 11:37:08;;;;;;;;;;;;;;;6.84;36.93;98649.22;5041055;28;20333;-78
2021/10/20 11:39:33;;;;;;;;;;;;;;;6.65;36.88;98665.72;5041485;28;20388;-78
2021/10/20 11:42:00;;;;;;;;;;;;;;;6.67;37.31;98645.19;5058053;28;19927;-79
2021/10/20 11:44:29;;;;;;;;;;;;;;;6.80;37.70;98646.81;5058120;28;19920;-79
2021/10/20 11:46:56;;;;;;;;;;;;;;;6.88;37.38;98654.19;5057968;28;20027;-79
2021/10/20 11:49:22;;;;;;;;;;;;;;;6.97;37.64;98669.44;5041364;28;19920;-79
2021/10/20 11:51:49;;;;;;;;;;;;;;;6.84;37.89;98673.97;5041576;28;20022;-78
2021/10/20 11:54:16;;;;;;;;;;;;;;;6.85;37.81;98675.69;5057872;28;19920;-78
2021/10/20 11:56:42;;;;;;;;;;;;;;;6.76;37.83;98682.53;5057467;28;20023;-79
2021/10/20 11:59:17;;;;;;;;;;;;;;;6.62;38.26;98682.72;5041551;28;20011;-78
2021/10/20 12:01:43;;;;;;;;;;;;;;;6.56;38.42;98670.75;5068945;28;19949;-79
2021/10/20 12:04:09;;;;;;;;;;;;;;;6.67;38.08;98682.38;5077776;28;19924;-78
2021/10/20 12:06:35;;;;;;;;;;;;;;;6.70;38.12;98679.50;5077544;28;20296;-77
2021/10/20 12:09:02;;;;;;;;;;;;;;;6.69;38.00;98691.06;5060928;28;20024;-77
2021/10/20 12:11:27;;;;;;;;;;;;;;;6.68;38.38;98684.06;5077789;28;19920;-77
2021/10/20 12:13:53;;;;;;;;;;;;;;;6.67;38.40;98695.66;5060736;28;19926;-77
2021/10/20 12:16:20;;;;;;;;;;;;;;;6.57;38.61;98698.97;5077747;28;19973;-78
2021/10/20 12:18:46;;;;;;;;;;;;;;;6.54;38.75;98688.63;5094209;28;19920;-77
2021/10/20 12:21:12;;;;;;;;;;;;;;;6.61;38.61;98698.75;5060472;28;20011;-78
2021/10/20 12:23:38;;;;;;;;;;;;;;;6.66;38.45;98693.97;5060872;28;19969;-78
2021/10/20 12:26:05;;;;;;;;;;;;;;;6.67;38.51;98695.66;5060069;28;19977;-77
2021/10/20 12:28:30;;;;;;;;;;;;;;;6.59;38.71;98706.00;5092460;28;19928;-78
2021/10/20 12:30:56;;;;;;;;;;;;;;;6.62;39.28;98711.06;5048754;28;19920;-78
2021/10/20 12:33:22;;;;;;;;;;;;;;;6.51;39.51;98704.78;5023589;28;19927;-77
2021/10/20 12:35:48;;;;;;;;;;;;;;;6.49;39.71;98717.28;5039974;28;19989;-77
2021/10/20 12:38:16;;;;;;;;;;;;;;;6.47;40.16;98710.38;5039828;28;20374;-77
2021/10/20 12:40:46;;;;;;;;;;;;;;;6.43;40.88;98717.75;5040251;28;19927;-78
2021/10/20 12:43:16;;;;;;;;;;;;;;;6.35;41.34;98716.59;5039914;28;19988;-77
2021/10/20 12:45:41;;;;;;;;;;;;;;;6.31;41.32;98718.63;5040178;28;20109;-77
2021/10/20 12:48:09;;;;;;;;;;;;;;;6.27;41.36;98727.78;5040117;28;20401;-78
2021/10/20 12:50:35;;;;;;;;;;;;;;;6.21;41.53;98722.94;5040142;28;19959;-77
2021/10/20 12:53:01;;;;;;;;;;;;;;;6.01;41.67;98727.84;5039750;28;20417;-77